Time;durP1;ratioP1;P1;durP2;ratioP2;P2;SDS_P1;SDS_P2;PMS_P1;PMS_P2;Temp;Humidity;BMP_temperature;BMP_pressure;BME280_temperature;BME280_humidity;BME280_pressure;Samples;Min_cycle;Max_cycle;Signal;HPM_P1;HPM_P2
2023/09/25 00:01:24;;;;;;;7.07;4.80;;;;;;;21.28;66.32;94929.47;5098103;28;20180;-68
2023/09/25 00:03:52;;;;;;;7.25;4.80;;;;;;;21.27;66.59;94932.69;5097211;28;20195;-68
2023/09/25 00:06:21;;;;;;;6.68;4.80;;;;;;;21.26;66.49;94929.09;5097819;28;20259;-68
2023/09/25 00:08:50;;;;;;;8.02;4.45;;;;;;;21.21;66.47;94923.97;5097740;28;20211;-68
2023/09/25 00:11:18;;;;;;;6.75;4.55;;;;;;;21.20;66.00;94930.00;5096773;28;20298;-68
2023/09/25 00:13:47;;;;;;;7.63;4.65;;;;;;;21.20;66.51;94941.22;5097541;28;20207;-68
2023/09/25 00:16:16;;;;;;;6.95;4.63;;;;;;;21.21;66.09;94934.41;5097868;28;20200;-68
2023/09/25 00:18:45;;;;;;;9.10;4.88;;;;;;;21.17;66.58;94931.66;5097129;28;20207;-68
2023/09/25 00:21:14;;;;;;;7.03;4.60;;;;;;;21.17;66.94;94931.66;5113742;28;20580;-68
2023/09/25 00:23:42;;;;;;;5.55;4.57;;;;;;;21.15;66.42;94934.06;5097270;28;20210;-68
2023/09/25 00:26:13;;;;;;;7.57;5.07;;;;;;;21.14;66.24;94936.09;5097585;28;20185;-68
2023/09/25 00:28:42;;;;;;;7.07;4.70;;;;;;;21.13;66.39;94930.91;5096357;28;20287;-68
2023/09/25 00:31:11;;;;;;;6.45;4.20;;;;;;;21.11;65.90;94931.34;5105216;28;20314;-68
2023/09/25 00:33:39;;;;;;;8.15;4.47;;;;;;;21.10;65.20;94926.16;5100111;28;20202;-68
2023/09/25 00:36:10;;;;;;;6.55;4.28;;;;;;;21.11;65.61;94928.53;5099614;28;20222;-68
2023/09/25 00:38:38;;;;;;;6.13;4.40;;;;;;;21.11;65.38;94930.53;5099915;28;20290;-68
2023/09/25 00:41:06;;;;;;;5.68;4.57;;;;;;;21.12;65.70;94927.31;5117445;28;20523;-67
2023/09/25 00:43:36;;;;;;;7.68;4.55;;;;;;;21.12;65.34;94932.91;5099862;28;20192;-67
2023/09/25 00:46:03;;;;;;;7.90;4.72;;;;;;;21.08;64.16;94928.59;5117610;28;20190;-68
2023/09/25 00:48:32;;;;;;;7.47;4.28;;;;;;;21.03;64.64;94935.47;5102095;28;20188;-68
2023/09/25 00:51:00;;;;;;;5.75;4.22;;;;;;;21.01;64.55;94932.28;5117428;28;20187;-68
2023/09/25 00:53:30;;;;;;;4.78;4.07;;;;;;;21.03;65.26;94943.09;5099563;28;20200;-68
2023/09/25 00:55:58;;;;;;;6.03;4.10;;;;;;;21.03;64.81;94943.09;5117307;28;20211;-68
2023/09/25 00:58:26;;;;;;;7.05;4.38;;;;;;;21.00;64.64;94946.75;5117561;28;20191;-68
2023/09/25 01:00:57;;;;;;;6.63;4.30;;;;;;;21.00;65.31;94943.94;5114943;28;20208;-68
2023/09/25 01:03:25;;;;;;;7.57;4.30;;;;;;;20.99;64.77;94940.34;5099363;28;20196;-68
2023/09/25 01:05:52;;;;;;;6.38;4.10;;;;;;;20.99;64.88;94934.72;5099603;28;20219;-67
2023/09/25 01:08:20;;;;;;;6.70;4.97;;;;;;;20.99;64.52;94933.91;5098844;28;20201;-68
2023/09/25 01:10:49;;;;;;;9.05;4.78;;;;;;;20.98;64.90;94930.31;5098927;28;20199;-68
2023/09/25 01:13:17;;;;;;;5.95;4.28;;;;;;;20.99;64.65;94933.91;5099110;28;20191;-68
2023/09/25 01:15:46;;;;;;;8.98;4.20;;;;;;;20.97;64.96;94942.75;5099158;28;20702;-68
2023/09/25 01:18:15;;;;;;;8.20;4.45;;;;;;;20.95;64.83;94936.78;5099322;28;20190;-67
2023/09/25 01:20:43;;;;;;;9.90;4.65;;;;;;;20.96;64.92;94940.41;5099350;28;20188;-68
2023/09/25 01:23:13;;;;;;;7.40;4.50;;;;;;;20.95;64.89;94942.38;5116070;28;20207;-68
2023/09/25 01:25:41;;;;;;;5.22;3.88;;;;;;;20.94;64.92;94940.81;5098859;28;20231;-68
2023/09/25 01:28:10;;;;;;;6.47;4.72;;;;;;;20.94;65.14;94931.59;5099309;28;20240;-68
2023/09/25 01:30:38;;;;;;;7.05;4.25;;;;;;;20.91;65.35;94934.06;5116399;28;20311;-68
2023/09/25 01:33:05;;;;;;;9.00;4.10;;;;;;;20.91;65.34;94936.03;5116495;28;20187;-68
2023/09/25 01:35:34;;;;;;;6.43;4.00;;;;;;;20.87;65.61;94936.09;5098282;28;20214;-67
2023/09/25 01:38:04;;;;;;;6.13;4.53;;;;;;;20.88;65.10;94940.50;5116562;28;20205;-67
2023/09/25 01:40:34;;;;;;;8.70;4.53;;;;;;;20.82;65.12;94939.38;5098617;28;20194;-67
2023/09/25 01:43:02;;;;;;;6.80;4.32;;;;;;;20.79;65.34;94939.44;5098692;28;20252;-67
2023/09/25 01:45:29;;;;;;;6.15;4.03;;;;;;;20.80;66.26;94941.00;5116197;28;20203;-67
2023/09/25 01:47:57;;;;;;;7.40;4.15;;;;;;;20.80;66.09;94946.63;5116669;28;20183;-68
2023/09/25 01:50:25;;;;;;;5.57;4.07;;;;;;;20.80;65.27;94941.00;5098719;28;20187;-68
2023/09/25 01:52:55;;;;;;;4.43;4.03;;;;;;;20.74;65.31;94942.72;5098406;28;20211;-68
2023/09/25 01:55:22;;;;;;;6.40;4.57;;;;;;;20.75;64.54;94935.88;5116314;28;20199;-68
2023/09/25 01:57:52;;;;;;;4.65;3.88;;;;;;;20.68;64.51;94945.97;5098535;28;20216;-68
2023/09/25 02:00:20;;;;;;;5.35;4.13;;;;;;;20.66;64.79;94945.63;5098130;28;20237;-67
2023/09/25 02:02:48;;;;;;;6.03;3.97;;;;;;;20.68;65.02;94943.16;5098135;28;20207;-67
2023/09/25 02:05:16;;;;;;;5.80;3.80;;;;;;;20.68;64.75;94948.00;5115876;28;20195;-68
2023/09/25 02:07:44;;;;;;;4.38;3.78;;;;;;;20.71;64.29;94955.56;5116039;28;20198;-67
2023/09/25 02:10:15;;;;;;;6.43;4.13;;;;;;;20.70;64.54;94965.19;5098518;28;20611;-67
2023/09/25 02:12:42;;;;;;;5.95;4.32;;;;;;;20.70;64.01;94978.38;5097393;28;20198;-68
2023/09/25 02:15:16;;;;;;;5.07;3.92;;;;;;;20.70;63.88;94972.78;5097686;28;20210;-67
2023/09/25 02:17:44;;;;;;;4.78;4.20;;;;;;;20.64;64.03;94973.25;5115596;28;20214;-67
2023/09/25 02:20:19;;;;;;;4.97;4.18;;;;;;;20.64;64.14;94978.06;5116107;28;20184;-67
2023/09/25 02:22:48;;;;;;;6.43;4.00;;;;;;;20.64;63.18;94980.88;5098324;28;20269;-67
2023/09/25 02:25:16;;;;;;;6.00;4.20;;;;;;;20.60;63.77;94982.94;5115651;28;20199;-67
2023/09/25 02:27:45;;;;;;;5.05;4.20;;;;;;;20.55;63.08;94980.56;5116386;28;20188;-67
2023/09/25 02:30:15;;;;;;;5.70;4.05;;;;;;;20.54;63.41;94973.38;5098126;28;20212;-67
2023/09/25 02:32:43;;;;;;;4.82;4.20;;;;;;;20.52;62.80;94984.25;5075359;28;20185;-68
2023/09/25 02:35:11;;;;;;;5.85;4.00;;;;;;;20.52;62.99;94985.03;5075537;28;20201;-67
2023/09/25 02:37:40;;;;;;;5.00;3.67;;;;;;;20.53;62.77;94974.63;5075845;28;20240;-67
2023/09/25 02:40:13;;;;;;;4.20;3.70;;;;;;;20.48;61.98;94975.84;5074468;28;20201;-68
2023/09/25 02:42:40;;;;;;;5.28;3.63;;;;;;;20.50;62.41;94986.66;5074123;28;20318;-68
2023/09/25 02:45:12;;;;;;;6.10;3.97;;;;;;;20.46;61.89;94985.88;5075761;28;20178;-68
2023/09/25 02:47:41;;;;;;;5.10;3.60;;;;;;;20.33;61.98;94980.00;5074368;28;20259;-68
2023/09/25 02:50:10;;;;;;;5.30;3.50;;;;;;;20.30;63.00;94978.03;5075734;28;20195;-68
2023/09/25 02:52:38;;;;;;;4.30;3.78;;;;;;;20.35;62.84;94977.59;5074960;28;20654;-67
2023/09/25 02:55:12;;;;;;;3.90;3.42;;;;;;;20.34;63.31;94987.22;5074166;28;20193;-68
2023/09/25 02:57:43;;;;;;;3.83;3.53;;;;;;;20.33;62.66;94989.19;5074470;28;20217;-68
2023/09/25 03:00:12;;;;;;;5.10;4.22;;;;;;;20.32;62.76;94996.03;5074844;28;20250;-68
2023/09/25 03:02:48;;;;;;;5.28;4.20;;;;;;;20.32;62.56;94998.81;5073904;28;20595;-68
2023/09/25 03:05:15;;;;;;;4.43;4.03;;;;;;;20.34;62.22;94992.81;5073961;28;20212;-73
2023/09/25 03:07:43;;;;;;;5.47;4.13;;;;;;;20.34;62.52;95004.03;5074142;28;20240;-68
2023/09/25 03:10:12;;;;;;;6.38;4.97;;;;;;;20.32;62.34;95004.44;5074298;28;20211;-68
2023/09/25 03:12:40;;;;;;;5.35;4.30;;;;;;;20.33;62.31;95003.22;5074041;28;20292;-68
2023/09/25 03:15:09;;;;;;;8.07;4.95;;;;;;;20.31;62.81;95005.66;5073897;28;20328;-68
2023/09/25 03:17:38;;;;;;;5.80;4.88;;;;;;;20.33;62.55;95008.03;5091107;28;20648;-68
2023/09/25 03:20:14;;;;;;;6.93;4.65;;;;;;;20.30;62.66;95014.44;5074486;28;20185;-70
2023/09/25 03:22:42;;;;;;;6.38;4.60;;;;;;;20.27;62.69;95016.09;5074377;28;20189;-68
2023/09/25 03:25:10;;;;;;;5.20;4.78;;;;;;;20.26;62.35;95022.91;5078804;28;20192;-68
2023/09/25 03:27:38;;;;;;;5.22;4.53;;;;;;;20.25;62.76;95020.53;5078624;28;20197;-68
2023/09/25 03:30:09;;;;;;;6.55;5.05;;;;;;;20.15;62.56;95020.22;5078455;28;20201;-68
2023/09/25 03:32:38;;;;;;;6.13;5.15;;;;;;;20.11;62.72;95018.66;5117947;28;20245;-68
2023/09/25 03:35:10;;;;;;;5.43;4.93;;;;;;;20.12;62.74;95009.06;5101285;28;20200;-68
2023/09/25 03:37:38;;;;;;;6.60;5.03;;;;;;;20.13;62.24;95027.44;5101459;28;20218;-67
2023/09/25 03:40:11;;;;;;;5.35;4.85;;;;;;;20.16;62.35;95021.03;5119543;28;20184;-66
2023/09/25 03:42:38;;;;;;;5.75;5.13;;;;;;;20.15;62.50;95023.03;5101637;28;20522;-67
2023/09/25 03:45:10;;;;;;;6.25;5.65;;;;;;;20.16;62.12;95026.63;5118917;28;20199;-67
2023/09/25 03:47:38;;;;;;;7.05;5.53;;;;;;;20.20;62.89;95030.19;5119062;28;20180;-67
2023/09/25 03:50:10;;;;;;;6.82;5.20;;;;;;;20.22;62.50;95032.56;5119171;28;20188;-67
2023/09/25 03:52:37;;;;;;;8.95;6.15;;;;;;;20.22;62.56;95033.34;5101272;28;20245;-67
2023/09/25 03:55:07;;;;;;;7.88;7.18;;;;;;;20.25;63.12;95024.09;5100951;28;20275;-67
2023/09/25 03:57:35;;;;;;;7.43;6.80;;;;;;;20.30;63.36;95025.66;5101156;28;20247;-67
2023/09/25 04:00:07;;;;;;;10.05;8.27;;;;;;;20.31;63.59;95025.25;5100802;28;20206;-67
2023/09/25 04:02:35;;;;;;;10.80;7.35;;;;;;;20.31;62.84;95024.47;5101051;28;20191;-67
2023/09/25 04:05:02;;;;;;;10.85;8.25;;;;;;;20.32;63.46;95024.03;5100148;28;20541;-67
2023/09/25 04:07:33;;;;;;;8.95;8.10;;;;;;;20.29;63.41;95026.88;5118330;28;20601;-66
2023/09/25 04:10:03;;;;;;;9.25;8.13;;;;;;;20.27;63.06;95026.50;5119539;28;20217;-66
2023/09/25 04:12:34;;;;;;;9.80;8.90;;;;;;;20.25;63.12;95032.50;5118589;28;20187;-66
2023/09/25 04:15:04;;;;;;;11.00;8.57;;;;;;;20.18;63.96;95033.38;5100242;28;20199;-66
2023/09/25 04:17:34;;;;;;;9.60;8.60;;;;;;;20.17;64.50;95037.41;5118004;28;20200;-66
2023/09/25 04:20:02;;;;;;;9.35;8.50;;;;;;;20.11;64.85;95043.84;5116855;28;20615;-66
2023/09/25 04:22:30;;;;;;;9.60;8.70;;;;;;;20.05;65.15;95037.94;5100389;28;20196;-66
2023/09/25 04:24:59;;;;;;;10.32;9.10;;;;;;;20.03;65.53;95040.34;5099891;28;20198;-66
2023/09/25 04:27:26;;;;;;;10.40;8.98;;;;;;;19.99;65.32;95041.59;5117790;28;20200;-66
2023/09/25 04:29:54;;;;;;;10.48;9.38;;;;;;;20.02;65.41;95049.94;5117893;28;20186;-67
2023/09/25 04:32:23;;;;;;;10.18;9.18;;;;;;;20.03;65.61;95057.13;5117371;28;20296;-68
2023/09/25 04:34:50;;;;;;;9.13;7.95;;;;;;;20.00;65.97;95055.16;5099481;28;20202;-67
2023/09/25 04:37:19;;;;;;;8.40;7.60;;;;;;;20.06;65.72;95056.31;5099417;28;20226;-67
2023/09/25 04:39:47;;;;;;;7.97;7.18;;;;;;;20.10;66.21;95059.06;5116964;28;20199;-67
2023/09/25 04:42:17;;;;;;;8.65;7.47;;;;;;;20.08;65.31;95061.47;5099999;28;20204;-67
2023/09/25 04:44:48;;;;;;;9.15;7.30;;;;;;;20.12;65.91;95065.84;5099341;28;20290;-68
2023/09/25 04:47:16;;;;;;;8.90;8.00;;;;;;;20.15;66.63;95065.03;5099425;28;20204;-67
2023/09/25 04:49:48;;;;;;;8.77;8.02;;;;;;;20.15;66.32;95064.22;5099838;28;20226;-68
2023/09/25 04:52:16;;;;;;;8.75;7.95;;;;;;;20.14;65.84;95066.22;5099404;28;20211;-66
2023/09/25 04:54:44;;;;;;;10.10;9.10;;;;;;;20.13;66.36;95066.66;5099731;28;20199;-67
2023/09/25 04:57:14;;;;;;;9.85;8.68;;;;;;;20.11;65.98;95066.25;5099398;28;20211;-67
2023/09/25 04:59:44;;;;;;;9.43;8.43;;;;;;;20.05;66.51;95071.53;5099821;28;20257;-67
2023/09/25 05:02:13;;;;;;;12.35;8.98;;;;;;;20.04;66.85;95071.91;5117536;28;20187;-66
2023/09/25 05:04:41;;;;;;;10.48;8.68;;;;;;;20.00;66.62;95071.94;5099388;28;20530;-66
2023/09/25 05:07:11;;;;;;;9.93;8.10;;;;;;;19.97;66.87;95064.38;5099798;28;20623;-67
2023/09/25 05:09:40;;;;;;;9.68;8.73;;;;;;;19.96;67.18;95072.00;5117754;28;20215;-67
2023/09/25 05:12:12;;;;;;;9.80;8.40;;;;;;;19.97;67.68;95064.38;5099371;28;20217;-66
2023/09/25 05:14:42;;;;;;;9.30;8.35;;;;;;;19.94;67.63;95077.22;5116618;28;20208;-67
2023/09/25 05:17:10;;;;;;;10.43;9.40;;;;;;;19.91;67.59;95082.84;5117143;28;20187;-66
2023/09/25 05:19:40;;;;;;;10.07;9.18;;;;;;;19.84;68.10;95091.31;5116581;28;20686;-66
2023/09/25 05:22:07;;;;;;;10.13;9.20;;;;;;;19.84;67.99;95083.69;5099161;28;20224;-66
2023/09/25 05:24:35;;;;;;;10.68;9.63;;;;;;;19.81;68.15;95081.72;5116227;28;20195;-67
2023/09/25 05:27:02;;;;;;;11.05;8.88;;;;;;;19.84;68.46;95099.69;5116966;28;20188;-66
2023/09/25 05:29:30;;;;;;;9.52;8.48;;;;;;;19.88;68.09;95094.88;5098930;28;20196;-66
2023/09/25 05:32:04;;;;;;;9.00;8.13;;;;;;;19.86;68.00;95094.47;5116706;28;20238;-66
2023/09/25 05:34:34;;;;;;;8.65;7.85;;;;;;;19.82;67.53;95096.50;5099353;28;20199;-66
2023/09/25 05:37:01;;;;;;;8.57;7.65;;;;;;;19.76;67.66;95104.56;5098800;28;20199;-66
2023/09/25 05:39:29;;;;;;;8.80;7.80;;;;;;;19.75;68.41;95110.56;5098399;28;20286;-66
2023/09/25 05:41:57;;;;;;;9.98;7.90;;;;;;;19.76;68.04;95112.97;5098684;28;20561;-66
2023/09/25 05:44:25;;;;;;;10.82;7.50;;;;;;;19.75;67.38;95114.13;5098806;28;20203;-66
2023/09/25 05:46:53;;;;;;;8.90;8.05;;;;;;;19.78;68.22;95130.13;5097662;28;20534;-67
2023/09/25 05:49:23;;;;;;;8.57;7.68;;;;;;;19.80;67.88;95124.91;5098119;28;20200;-66
2023/09/25 05:51:53;;;;;;;10.13;8.93;;;;;;;19.79;67.40;95128.09;5115387;28;20202;-67
2023/09/25 05:54:22;;;;;;;9.82;8.93;;;;;;;19.74;67.77;95129.34;5098860;28;20294;-66
2023/09/25 05:56:50;;;;;;;10.90;9.82;;;;;;;19.75;67.52;95118.94;5098220;28;20236;-66
2023/09/25 05:59:18;;;;;;;9.82;8.93;;;;;;;19.73;67.75;95122.16;5098102;28;20212;-66
2023/09/25 06:01:45;;;;;;;9.02;8.20;;;;;;;19.74;68.06;95129.34;5098301;28;20618;-66
2023/09/25 06:04:12;;;;;;;9.63;8.73;;;;;;;19.75;67.64;95125.34;5098359;28;20298;-66
2023/09/25 06:06:42;;;;;;;8.32;7.28;;;;;;;19.82;67.93;95133.69;5098147;28;20198;-66
2023/09/25 06:09:15;;;;;;;8.80;7.90;;;;;;;19.86;67.68;95125.25;5098451;28;20213;-66
2023/09/25 06:11:49;;;;;;;9.27;8.15;;;;;;;19.89;68.14;95130.81;5098298;28;20607;-68
2023/09/25 06:14:18;;;;;;;8.75;7.93;;;;;;;19.91;68.12;95124.84;5098338;28;20275;-68
2023/09/25 06:16:47;;;;;;;9.35;8.38;;;;;;;19.92;68.21;95129.22;5098058;28;20196;-69
2023/09/25 06:19:14;;;;;;;9.68;8.77;;;;;;;19.90;68.06;95126.84;5098016;28;20216;-66
2023/09/25 06:21:42;;;;;;;9.52;7.93;;;;;;;19.90;68.63;95121.25;5098260;28;20196;-67
2023/09/25 06:24:13;;;;;;;9.48;8.50;;;;;;;19.99;68.44;95126.34;5098291;28;20196;-67
2023/09/25 06:26:46;;;;;;;9.50;8.50;;;;;;;20.01;68.11;95134.34;5097952;28;20192;-66
2023/09/25 06:29:15;;;;;;;9.57;8.60;;;;;;;20.03;68.71;95127.13;5097482;28;20199;-67
2023/09/25 06:31:46;;;;;;;10.35;9.35;;;;;;;20.08;68.17;95135.09;5111146;28;20242;-66
2023/09/25 06:34:15;;;;;;;10.73;8.93;;;;;;;20.04;68.22;95139.09;5094465;28;20246;-66
2023/09/25 06:36:48;;;;;;;10.80;9.75;;;;;;;20.03;68.63;95141.13;5094829;28;20204;-66
2023/09/25 06:39:15;;;;;;;9.85;8.95;;;;;;;20.08;68.38;95146.28;5094277;28;20218;-66
2023/09/25 06:41:43;;;;;;;10.30;9.30;;;;;;;20.12;68.75;95161.06;5094578;28;20235;-66
2023/09/25 06:44:12;;;;;;;10.60;9.60;;;;;;;20.06;68.43;95154.28;5094727;28;20204;-66
2023/09/25 06:46:42;;;;;;;10.75;9.65;;;;;;;20.11;68.12;95155.84;5094763;28;20588;-67
2023/09/25 06:49:09;;;;;;;9.68;8.77;;;;;;;20.12;68.84;95157.47;5111442;28;20200;-67
2023/09/25 06:51:36;;;;;;;12.63;9.73;;;;;;;20.17;69.01;95157.81;5094181;28;20224;-67
2023/09/25 06:54:12;;;;;;;11.30;10.20;;;;;;;20.16;69.18;95159.03;5094982;28;20296;-67
2023/09/25 06:56:44;;;;;;;11.00;9.90;;;;;;;20.19;69.10;95158.19;5094604;28;20219;-66
2023/09/25 06:59:11;;;;;;;10.25;9.25;;;;;;;20.22;69.39;95169.75;5098097;28;20212;-66
2023/09/25 07:01:39;;;;;;;11.95;9.57;;;;;;;20.24;69.30;95161.75;5098592;28;20495;-66
2023/09/25 07:04:10;;;;;;;12.88;10.00;;;;;;;20.32;69.36;95163.28;5098433;28;20202;-66
2023/09/25 07:06:39;;;;;;;11.68;10.48;;;;;;;20.37;68.58;95162.81;5098334;28;20197;-67
2023/09/25 07:09:14;;;;;;;11.40;10.30;;;;;;;20.31;69.30;95167.31;5096868;28;20211;-67
2023/09/25 07:11:42;;;;;;;12.43;10.93;;;;;;;20.39;68.65;95171.63;5098557;28;20192;-67
2023/09/25 07:14:12;;;;;;;12.45;11.25;;;;;;;20.38;68.41;95176.44;5114810;28;20199;-67
2023/09/25 07:16:43;;;;;;;11.93;10.48;;;;;;;20.40;68.60;95168.41;5098322;28;20208;-67
2023/09/25 07:19:14;;;;;;;11.50;10.35;;;;;;;20.44;68.04;95169.19;5114746;28;20310;-67
2023/09/25 07:21:42;;;;;;;12.27;10.23;;;;;;;20.49;67.37;95167.13;5098211;28;20196;-66
2023/09/25 07:24:12;;;;;;;12.88;10.70;;;;;;;20.48;66.12;95171.94;5098189;28;20200;-66
2023/09/25 07:26:43;;;;;;;11.07;9.82;;;;;;;20.53;65.94;95173.53;5114676;28;20283;-66
2023/09/25 07:29:11;;;;;;;11.45;10.35;;;;;;;20.64;65.78;95171.41;5097820;28;20635;-66
2023/09/25 07:31:39;;;;;;;11.75;10.15;;;;;;;20.74;65.10;95169.72;5110022;28;20254;-66
2023/09/25 07:34:06;;;;;;;13.68;10.25;;;;;;;20.83;64.58;95167.22;5100866;28;20203;-66
2023/09/25 07:36:35;;;;;;;11.95;10.35;;;;;;;20.91;63.78;95172.34;5119106;28;20227;-66
2023/09/25 07:39:02;;;;;;;11.73;9.88;;;;;;;20.92;62.16;95181.53;5101093;28;20243;-66
2023/09/25 07:41:30;;;;;;;13.52;10.77;;;;;;;20.96;62.76;95173.09;5100892;28;20198;-66
2023/09/25 07:43:59;;;;;;;11.07;10.07;;;;;;;20.98;62.21;95174.25;5118600;28;20616;-66
2023/09/25 07:46:29;;;;;;;12.20;10.75;;;;;;;21.04;62.32;95171.78;5101346;28;20202;-66
2023/09/25 07:48:58;;;;;;;11.20;10.10;;;;;;;21.09;62.72;95182.53;5100741;28;20200;-66
2023/09/25 07:51:29;;;;;;;11.25;10.15;;;;;;;21.19;62.48;95178.00;5100535;28;20235;-66
2023/09/25 07:53:58;;;;;;;10.68;9.57;;;;;;;21.19;61.65;95178.00;5101032;28;20200;-66
2023/09/25 07:56:25;;;;;;;11.18;10.15;;;;;;;21.17;60.85;95181.25;5118723;28;20257;-66
2023/09/25 07:59:03;;;;;;;11.07;9.75;;;;;;;21.15;60.53;95173.25;5100548;28;20643;-67
2023/09/25 08:01:30;;;;;;;11.18;10.02;;;;;;;21.12;60.08;95179.69;5112554;28;20272;-66
2023/09/25 08:03:59;;;;;;;11.55;10.35;;;;;;;21.11;60.58;95180.13;5100355;28;20209;-66
2023/09/25 08:06:28;;;;;;;11.25;10.05;;;;;;;21.13;60.97;95172.88;5100344;28;20546;-66
2023/09/25 08:08:57;;;;;;;11.57;10.32;;;;;;;21.20;59.54;95179.59;5100045;28;20187;-67
2023/09/25 08:11:25;;;;;;;11.57;10.25;;;;;;;21.25;60.98;95173.53;5118112;28;20760;-69
2023/09/25 08:13:56;;;;;;;11.43;10.20;;;;;;;21.28;59.42;95170.69;5100256;28;20216;-69
2023/09/25 08:16:27;;;;;;;11.95;8.77;;;;;;;21.34;57.85;95162.63;5117499;28;20199;-69
2023/09/25 08:18:55;;;;;;;8.82;7.82;;;;;;;21.34;57.99;95169.03;5118398;28;20289;-68
2023/09/25 08:21:24;;;;;;;9.10;8.00;;;;;;;21.39;57.51;95162.16;5100210;28;20195;-68
2023/09/25 08:23:52;;;;;;;9.13;7.35;;;;;;;21.42;57.51;95160.50;5100370;28;20207;-67
2023/09/25 08:26:20;;;;;;;10.48;8.35;;;;;;;21.50;59.03;95157.22;5100516;28;20227;-67
2023/09/25 08:28:50;;;;;;;8.48;7.65;;;;;;;21.52;58.69;95160.38;5100123;28;20184;-67
2023/09/25 08:31:19;;;;;;;10.65;8.05;;;;;;;21.52;60.26;95165.97;5096581;28;20331;-67
2023/09/25 08:33:47;;;;;;;9.30;8.10;;;;;;;21.59;60.77;95160.28;5097590;28;20189;-67
2023/09/25 08:36:16;;;;;;;8.23;7.40;;;;;;;21.65;57.89;95159.81;5096970;28;20205;-66
2023/09/25 08:38:44;;;;;;;8.32;7.53;;;;;;;21.68;58.11;95164.56;5097480;28;20250;-66
2023/09/25 08:41:13;;;;;;;7.45;6.75;;;;;;;21.71;57.72;95167.31;5097059;28;20619;-67
2023/09/25 08:43:42;;;;;;;8.23;6.47;;;;;;;21.77;56.09;95162.81;5096733;28;20204;-66
2023/09/25 08:46:11;;;;;;;7.95;6.60;;;;;;;21.80;56.29;95170.41;5097455;28;20177;-66
2023/09/25 08:48:41;;;;;;;7.18;6.47;;;;;;;21.80;56.40;95161.19;5096387;28;20202;-66
2023/09/25 08:51:12;;;;;;;7.05;6.45;;;;;;;21.79;56.62;95162.41;5097252;28;20203;-66
2023/09/25 08:53:43;;;;;;;7.40;6.70;;;;;;;21.78;56.18;95160.81;5097021;28;20232;-66
2023/09/25 08:56:14;;;;;;;7.13;6.43;;;;;;;21.79;56.27;95166.03;5097152;28;20185;-66
2023/09/25 08:58:43;;;;;;;7.20;6.18;;;;;;;21.79;56.56;95173.66;5095671;28;20245;-66
2023/09/25 09:01:14;;;;;;;6.93;6.00;;;;;;;21.80;56.19;95169.63;5096989;28;20188;-66
2023/09/25 09:03:45;;;;;;;5.80;5.30;;;;;;;21.88;57.00;95165.47;5096617;28;20249;-66
2023/09/25 09:06:14;;;;;;;6.47;5.82;;;;;;;21.96;56.26;95160.53;5096148;28;20544;-66
2023/09/25 09:08:46;;;;;;;6.45;5.80;;;;;;;21.98;55.78;95158.91;5096377;28;20207;-66
2023/09/25 09:11:14;;;;;;;7.97;5.70;;;;;;;21.98;54.72;95158.13;5097161;28;20263;-66
2023/09/25 09:13:47;;;;;;;6.40;5.80;;;;;;;21.96;55.76;95164.16;5095730;28;20230;-66
2023/09/25 09:16:15;;;;;;;5.82;5.22;;;;;;;21.96;54.88;95152.13;5096945;28;20234;-67
2023/09/25 09:18:48;;;;;;;5.82;5.32;;;;;;;21.92;55.40;95157.78;5095539;28;20686;-67
2023/09/25 09:21:26;;;;;;;5.55;5.05;;;;;;;21.92;55.85;95159.81;5094875;28;20227;-66
2023/09/25 09:23:56;;;;;;;5.32;4.93;;;;;;;21.92;55.58;95159.81;5095915;28;20206;-66
2023/09/25 09:26:27;;;;;;;5.47;4.90;;;;;;;21.92;55.47;95157.78;5095626;28;20188;-66
2023/09/25 09:28:56;;;;;;;6.65;5.00;;;;;;;21.91;55.72;95161.81;5095596;28;20230;-66
2023/09/25 09:31:24;;;;;;;6.53;4.80;;;;;;;21.90;55.35;95157.44;5095141;28;20326;-67
2023/09/25 09:33:56;;;;;;;6.15;5.38;;;;;;;21.89;55.78;95164.25;5095187;28;20219;-66
2023/09/25 09:36:24;;;;;;;6.05;5.00;;;;;;;21.92;55.99;95174.63;5112557;28;20254;-66
2023/09/25 09:38:53;;;;;;;7.45;5.20;;;;;;;21.94;55.91;95169.41;5095292;28;20220;-66
2023/09/25 09:41:22;;;;;;;7.80;6.00;;;;;;;21.97;55.80;95157.34;5112053;28;20291;-66
2023/09/25 09:43:53;;;;;;;6.70;6.00;;;;;;;21.99;56.10;95160.50;5095899;28;20193;-66
2023/09/25 09:46:26;;;;;;;6.15;5.57;;;;;;;22.05;55.89;95158.00;5096435;28;20180;-66
2023/09/25 09:48:56;;;;;;;5.50;4.95;;;;;;;22.09;55.94;95162.34;5095161;28;20608;-67
2023/09/25 09:51:27;;;;;;;5.18;4.68;;;;;;;22.14;55.00;95163.91;5095124;28;20196;-66
2023/09/25 09:53:55;;;;;;;6.63;4.72;;;;;;;22.19;54.02;95157.03;5112281;28;20192;-67
2023/09/25 09:56:22;;;;;;;6.65;5.07;;;;;;;22.26;54.63;95154.06;5094945;28;20532;-66
2023/09/25 09:58:52;;;;;;;6.18;4.65;;;;;;;22.39;54.59;95163.50;5094707;28;20258;-66
2023/09/25 10:01:20;;;;;;;5.30;4.80;;;;;;;22.50;54.03;95161.28;5095219;28;20490;-66
2023/09/25 10:03:49;;;;;;;5.47;4.82;;;;;;;22.50;53.88;95158.47;5095286;28;20196;-66
2023/09/25 10:06:18;;;;;;;8.38;5.00;;;;;;;22.44;52.94;95162.19;5095633;28;20283;-66
2023/09/25 10:09:00;;;;;;;5.32;4.82;;;;;;;22.36;53.05;95161.53;5096070;28;20180;-66
2023/09/25 10:11:28;;;;;;;5.47;4.90;;;;;;;22.40;53.80;95164.28;5095552;28;20188;-66
2023/09/25 10:14:01;;;;;;;5.82;5.28;;;;;;;22.42;53.83;95159.81;5094759;28;20224;-67
2023/09/25 10:16:31;;;;;;;7.50;4.57;;;;;;;22.48;54.02;95160.94;5095605;28;20185;-66
2023/09/25 10:18:58;;;;;;;6.25;4.80;;;;;;;22.49;53.90;95165.31;5111542;28;20247;-66
2023/09/25 10:21:28;;;;;;;6.10;4.95;;;;;;;22.47;53.46;95161.34;5094931;28;20193;-66
2023/09/25 10:23:57;;;;;;;5.18;4.68;;;;;;;22.42;53.51;95153.41;5094683;28;20204;-67
2023/09/25 10:26:29;;;;;;;5.07;4.68;;;;;;;22.41;53.99;95149.03;5095440;28;20180;-66
2023/09/25 10:28:59;;;;;;;4.95;4.55;;;;;;;22.41;54.00;95143.41;5094583;28;20196;-66
2023/09/25 10:31:29;;;;;;;4.95;4.55;;;;;;;22.39;53.96;95149.44;5111222;28;20230;-68
2023/09/25 10:33:58;;;;;;;6.32;5.07;;;;;;;22.41;54.47;95146.22;5094753;28;20283;-68
2023/09/25 10:36:38;;;;;;;5.72;5.18;;;;;;;22.48;54.52;95146.09;5094864;28;20203;-67
2023/09/25 10:39:08;;;;;;;5.32;4.80;;;;;;;22.54;53.94;95142.34;5094375;28;20218;-67
2023/09/25 10:41:37;;;;;;;5.60;5.05;;;;;;;22.59;54.15;95143.88;5094551;28;20200;-67
2023/09/25 10:44:04;;;;;;;5.20;4.80;;;;;;;22.61;53.59;95151.88;5094803;28;20294;-67
2023/09/25 10:46:32;;;;;;;5.60;5.10;;;;;;;22.66;53.61;95159.78;5094263;28;20267;-67
2023/09/25 10:48:59;;;;;;;7.07;4.70;;;;;;;22.72;53.86;95146.84;5094681;28;20204;-67
2023/09/25 10:51:27;;;;;;;6.00;4.75;;;;;;;22.75;53.68;95143.97;5111053;28;20743;-67
2023/09/25 10:53:56;;;;;;;5.50;4.60;;;;;;;22.72;52.56;95144.81;5094925;28;20204;-67
2023/09/25 10:56:24;;;;;;;5.45;4.95;;;;;;;22.69;52.61;95158.94;5094172;28;20185;-67
2023/09/25 10:58:53;;;;;;;4.80;4.40;;;;;;;22.69;53.11;95142.06;5094525;28;20600;-67
2023/09/25 11:01:24;;;;;;;5.45;4.55;;;;;;;22.70;52.45;95149.31;5094306;28;20185;-68
2023/09/25 11:03:56;;;;;;;5.45;4.90;;;;;;;22.69;52.05;95150.50;5094316;28;20184;-67
2023/09/25 11:06:22;;;;;;;5.00;4.47;;;;;;;22.67;52.60;95147.34;5094325;28;20195;-67
2023/09/25 11:08:59;;;;;;;5.50;4.57;;;;;;;22.67;52.36;95158.59;5111162;28;20275;-67
2023/09/25 11:11:29;;;;;;;5.80;4.35;;;;;;;22.69;52.55;95145.69;5111069;28;20204;-67
2023/09/25 11:13:57;;;;;;;4.80;4.38;;;;;;;22.68;51.14;95148.94;5095326;28;20189;-67
2023/09/25 11:16:25;;;;;;;5.10;4.70;;;;;;;22.72;52.60;95147.63;5094454;28;20196;-66
2023/09/25 11:19:07;;;;;;;5.65;4.50;;;;;;;22.82;51.97;95145.84;5094862;28;20191;-66
2023/09/25 11:21:34;;;;;;;6.50;5.30;;;;;;;22.87;53.05;95155.81;5094255;28;20228;-66
2023/09/25 11:24:08;;;;;;;5.78;4.90;;;;;;;22.83;54.36;95151.03;5093890;28;20287;-66
2023/09/25 11:26:37;;;;;;;9.75;5.95;;;;;;;22.85;55.29;95153.44;5094265;28;20206;-66
2023/09/25 11:29:08;;;;;;;6.50;5.90;;;;;;;22.84;55.93;95143.41;5094978;28;20189;-66
2023/09/25 11:31:38;;;;;;;7.47;6.78;;;;;;;22.88;55.57;95149.75;5104843;28;20250;-66
2023/09/25 11:34:08;;;;;;;7.07;5.65;;;;;;;22.91;55.49;95154.50;5097573;28;20221;-66
2023/09/25 11:36:36;;;;;;;7.75;6.47;;;;;;;22.94;55.61;95142.44;5097456;28;20617;-66
2023/09/25 11:39:15;;;;;;;8.68;6.72;;;;;;;22.99;55.76;95146.78;5096000;28;20212;-66
2023/09/25 11:41:43;;;;;;;6.82;6.20;;;;;;;22.94;55.69;95155.69;5114594;28;20230;-66